sensor_id;sensor_type;location;lat;lon;timestamp;pressure;altitude;pressure_sealevel;temperature;humidity
8320;BME280;4197;42.130;24.746;2023-08-08T00:01:04;99065.25;;;22.65;60.80
8320;BME280;4197;42.130;24.746;2023-08-08T00:03:34;99065.88;;;22.69;60.31
8320;BME280;4197;42.130;24.746;2023-08-08T00:06:04;99064.09;;;22.75;60.05
8320;BME280;4197;42.130;24.746;2023-08-08T00:08:32;99062.00;;;22.66;60.39
8320;BME280;4197;42.130;24.746;2023-08-08T00:11:00;99062.34;;;22.68;60.71
8320;BME280;4197;42.130;24.746;2023-08-08T00:13:29;99061.91;;;22.70;60.55
8320;BME280;4197;42.130;24.746;2023-08-08T00:15:57;99060.69;;;22.71;60.72
8320;BME280;4197;42.130;24.746;2023-08-08T00:18:25;99057.59;;;22.69;60.87
8320;BME280;4197;42.130;24.746;2023-08-08T00:20:53;99061.25;;;22.66;61.06
8320;BME280;4197;42.130;24.746;2023-08-08T00:23:23;99058.94;;;22.64;61.31
8320;BME280;4197;42.130;24.746;2023-08-08T00:25:51;99065.56;;;22.67;61.40
8320;BME280;4197;42.130;24.746;2023-08-08T00:28:19;99066.00;;;22.65;61.48
8320;BME280;4197;42.130;24.746;2023-08-08T00:30:47;99067.59;;;22.54;62.33
8320;BME280;4197;42.130;24.746;2023-08-08T00:33:16;99072.09;;;22.60;63.39
8320;BME280;4197;42.130;24.746;2023-08-08T00:35:44;99076.09;;;22.59;63.95
8320;BME280;4197;42.130;24.746;2023-08-08T00:38:12;99075.41;;;22.55;64.18
8320;BME280;4197;42.130;24.746;2023-08-08T00:40:42;99074.88;;;22.47;64.89
8320;BME280;4197;42.130;24.746;2023-08-08T00:43:10;99063.28;;;22.40;65.35
8320;BME280;4197;42.130;24.746;2023-08-08T00:45:40;99070.47;;;22.37;65.74
8320;BME280;4197;42.130;24.746;2023-08-08T00:48:09;99073.09;;;22.41;65.83
8320;BME280;4197;42.130;24.746;2023-08-08T00:50:42;99066.34;;;22.42;66.64
8320;BME280;4197;42.130;24.746;2023-08-08T00:53:10;99061.50;;;22.33;67.76
8320;BME280;4197;42.130;24.746;2023-08-08T00:55:39;99072.69;;;22.30;68.56
8320;BME280;4197;42.130;24.746;2023-08-08T00:58:09;99069.47;;;22.31;68.73
8320;BME280;4197;42.130;24.746;2023-08-08T01:00:37;99074.56;;;22.33;69.03
8320;BME280;4197;42.130;24.746;2023-08-08T01:03:05;99071.03;;;22.32;69.24
8320;BME280;4197;42.130;24.746;2023-08-08T01:05:38;99073.34;;;22.34;69.38
8320;BME280;4197;42.130;24.746;2023-08-08T01:08:11;99076.97;;;22.31;69.60
8320;BME280;4197;42.130;24.746;2023-08-08T01:10:44;99082.19;;;22.29;69.96
8320;BME280;4197;42.130;24.746;2023-08-08T01:13:18;99080.97;;;22.30;70.02
8320;BME280;4197;42.130;24.746;2023-08-08T01:15:49;99085.84;;;22.25;70.34
8320;BME280;4197;42.130;24.746;2023-08-08T01:18:19;99081.97;;;22.23;70.44
8320;BME280;4197;42.130;24.746;2023-08-08T01:20:47;99084.38;;;22.21;70.88
8320;BME280;4197;42.130;24.746;2023-08-08T01:23:19;99093.56;;;22.18;70.84
8320;BME280;4197;42.130;24.746;2023-08-08T01:25:53;99093.56;;;22.18;70.67
8320;BME280;4197;42.130;24.746;2023-08-08T01:28:22;99100.59;;;22.06;69.75
8320;BME280;4197;42.130;24.746;2023-08-08T01:30:51;99101.34;;;21.94;69.37
8320;BME280;4197;42.130;24.746;2023-08-08T01:33:20;99107.63;;;21.81;69.95
8320;BME280;4197;42.130;24.746;2023-08-08T01:35:53;99103.38;;;21.64;70.61
8320;BME280;4197;42.130;24.746;2023-08-08T01:38:26;99117.63;;;21.63;70.96
8320;BME280;4197;42.130;24.746;2023-08-08T01:40:59;99108.56;;;21.62;71.13
8320;BME280;4197;42.130;24.746;2023-08-08T01:43:28;99115.28;;;21.61;71.39
8320;BME280;4197;42.130;24.746;2023-08-08T01:45:58;99125.44;;;21.64;71.46
8320;BME280;4197;42.130;24.746;2023-08-08T01:48:28;99117.03;;;21.55;72.23
8320;BME280;4197;42.130;24.746;2023-08-08T01:50:56;99120.47;;;21.59;72.03
8320;BME280;4197;42.130;24.746;2023-08-08T01:53:24;99124.09;;;21.56;72.56
8320;BME280;4197;42.130;24.746;2023-08-08T01:55:53;99122.56;;;21.55;72.46
8320;BME280;4197;42.130;24.746;2023-08-08T01:58:22;99120.09;;;21.44;73.11
8320;BME280;4197;42.130;24.746;2023-08-08T02:00:50;99123.88;;;21.34;73.76
8320;BME280;4197;42.130;24.746;2023-08-08T02:03:18;99127.41;;;21.34;73.93
8320;BME280;4197;42.130;24.746;2023-08-08T02:05:47;99133.09;;;21.27;73.98
8320;BME280;4197;42.130;24.746;2023-08-08T02:08:15;99133.63;;;21.22;73.97
8320;BME280;4197;42.130;24.746;2023-08-08T02:10:43;99136.13;;;21.16;74.99
8320;BME280;4197;42.130;24.746;2023-08-08T02:13:12;99143.28;;;21.14;75.31
8320;BME280;4197;42.130;24.746;2023-08-08T02:15:41;99140.72;;;21.07;76.18
8320;BME280;4197;42.130;24.746;2023-08-08T02:18:09;99141.94;;;21.06;76.73
8320;BME280;4197;42.130;24.746;2023-08-08T02:20:37;99141.94;;;21.06;77.27
8320;BME280;4197;42.130;24.746;2023-08-08T02:23:06;99150.03;;;20.97;78.10
8320;BME280;4197;42.130;24.746;2023-08-08T02:25:34;99151.78;;;20.90;78.83
8320;BME280;4197;42.130;24.746;2023-08-08T02:28:02;99162.88;;;20.87;78.94
8320;BME280;4197;42.130;24.746;2023-08-08T02:30:30;99167.00;;;20.79;79.61
8320;BME280;4197;42.130;24.746;2023-08-08T02:33:00;99158.81;;;20.75;79.91
8320;BME280;4197;42.130;24.746;2023-08-08T02:35:28;99155.63;;;20.77;79.74
8320;BME280;4197;42.130;24.746;2023-08-08T02:37:57;99166.31;;;20.75;79.63
8320;BME280;4197;42.130;24.746;2023-08-08T02:40:25;99172.59;;;20.75;79.88
8320;BME280;4197;42.130;24.746;2023-08-08T02:42:53;99167.41;;;20.61;81.48
8320;BME280;4197;42.130;24.746;2023-08-08T02:45:21;99176.03;;;20.63;82.41
8320;BME280;4197;42.130;24.746;2023-08-08T02:47:50;99177.41;;;20.55;83.50
8320;BME280;4197;42.130;24.746;2023-08-08T02:50:19;99188.53;;;20.47;85.04
8320;BME280;4197;42.130;24.746;2023-08-08T02:52:49;99183.97;;;20.41;86.09
8320;BME280;4197;42.130;24.746;2023-08-08T02:55:18;99183.06;;;20.27;87.88
8320;BME280;4197;42.130;24.746;2023-08-08T02:57:47;99188.84;;;20.33;88.21
8320;BME280;4197;42.130;24.746;2023-08-08T03:00:15;99181.94;;;20.25;89.69
8320;BME280;4197;42.130;24.746;2023-08-08T03:02:44;99191.06;;;20.22;90.34
8320;BME280;4197;42.130;24.746;2023-08-08T03:05:12;99197.81;;;20.17;91.64
8320;BME280;4197;42.130;24.746;2023-08-08T03:07:41;99210.06;;;20.16;92.72
8320;BME280;4197;42.130;24.746;2023-08-08T03:10:09;99203.41;;;20.14;94.15
8320;BME280;4197;42.130;24.746;2023-08-08T03:12:38;99205.19;;;20.04;97.71
8320;BME280;4197;42.130;24.746;2023-08-08T03:15:07;99213.44;;;20.04;98.92
8320;BME280;4197;42.130;24.746;2023-08-08T03:17:36;99217.06;;;20.01;99.57
8320;BME280;4197;42.130;24.746;2023-08-08T03:20:06;99223.34;;;20.01;100.00
8320;BME280;4197;42.130;24.746;2023-08-08T03:22:34;99227.22;;;20.04;100.00
8320;BME280;4197;42.130;24.746;2023-08-08T03:25:04;99225.44;;;19.94;100.00
8320;BME280;4197;42.130;24.746;2023-08-08T03:27:33;99233.56;;;20.01;100.00
8320;BME280;4197;42.130;24.746;2023-08-08T03:30:01;99247.53;;;19.90;100.00
8320;BME280;4197;42.130;24.746;2023-08-08T03:32:29;99246.41;;;19.88;100.00
8320;BME280;4197;42.130;24.746;2023-08-08T03:34:57;99257.69;;;19.93;100.00
8320;BME280;4197;42.130;24.746;2023-08-08T03:37:25;99260.94;;;19.88;100.00
8320;BME280;4197;42.130;24.746;2023-08-08T03:39:53;99268.97;;;19.79;100.00
8320;BME280;4197;42.130;24.746;2023-08-08T03:42:23;99270.69;;;19.69;100.00
8320;BME280;4197;42.130;24.746;2023-08-08T03:44:51;99273.50;;;19.66;100.00
8320;BME280;4197;42.130;24.746;2023-08-08T03:47:19;99277.19;;;19.55;100.00
8320;BME280;4197;42.130;24.746;2023-08-08T03:49:49;99279.22;;;19.51;100.00
8320;BME280;4197;42.130;24.746;2023-08-08T03:52:17;99302.31;;;19.57;100.00
8320;BME280;4197;42.130;24.746;2023-08-08T03:54:45;99292.19;;;19.51;100.00
8320;BME280;4197;42.130;24.746;2023-08-08T03:57:13;99293.81;;;19.48;100.00
8320;BME280;4197;42.130;24.746;2023-08-08T03:59:43;99318.50;;;19.52;100.00
8320;BME280;4197;42.130;24.746;2023-08-08T04:02:12;99319.97;;;19.56;100.00
8320;BME280;4197;42.130;24.746;2023-08-08T04:04:40;99328.72;;;19.51;100.00
8320;BME280;4197;42.130;24.746;2023-08-08T04:07:08;99327.38;;;19.36;100.00
8320;BME280;4197;42.130;24.746;2023-08-08T04:09:37;99333.16;;;19.18;100.00
8320;BME280;4197;42.130;24.746;2023-08-08T04:12:05;99338.75;;;19.11;100.00
8320;BME280;4197;42.130;24.746;2023-08-08T04:14:33;99349.81;;;19.04;100.00
8320;BME280;4197;42.130;24.746;2023-08-08T04:17:03;99346.38;;;19.00;100.00
8320;BME280;4197;42.130;24.746;2023-08-08T04:19:32;99345.66;;;18.92;100.00
8320;BME280;4197;42.130;24.746;2023-08-08T04:22:00;99353.81;;;18.68;100.00
8320;BME280;4197;42.130;24.746;2023-08-08T04:24:28;99361.28;;;18.30;100.00
8320;BME280;4197;42.130;24.746;2023-08-08T04:26:57;99370.97;;;18.00;100.00
8320;BME280;4197;42.130;24.746;2023-08-08T04:29:25;99370.38;;;17.78;100.00
8320;BME280;4197;42.130;24.746;2023-08-08T04:31:53;99364.97;;;17.64;100.00
8320;BME280;4197;42.130;24.746;2023-08-08T04:34:22;99358.38;;;17.58;100.00
8320;BME280;4197;42.130;24.746;2023-08-08T04:36:51;99359.53;;;17.57;100.00
8320;BME280;4197;42.130;24.746;2023-08-08T04:39:19;99367.41;;;17.55;100.00
8320;BME280;4197;42.130;24.746;2023-08-08T04:41:47;99364.31;;;17.46;100.00
8320;BME280;4197;42.130;24.746;2023-08-08T04:44:15;99358.50;;;17.36;100.00
8320;BME280;4197;42.130;24.746;2023-08-08T04:46:43;99364.41;;;17.31;100.00
8320;BME280;4197;42.130;24.746;2023-08-08T04:49:11;99373.09;;;17.23;100.00
8320;BME280;4197;42.130;24.746;2023-08-08T04:51:41;99386.47;;;17.13;100.00
8320;BME280;4197;42.130;24.746;2023-08-08T04:54:09;99378.25;;;17.06;100.00
8320;BME280;4197;42.130;24.746;2023-08-08T04:56:37;99396.63;;;17.09;100.00
8320;BME280;4197;42.130;24.746;2023-08-08T04:59:05;99406.03;;;17.08;100.00
8320;BME280;4197;42.130;24.746;2023-08-08T05:01:33;99412.31;;;17.05;100.00
8320;BME280;4197;42.130;24.746;2023-08-08T05:04:02;99411.53;;;17.05;100.00
8320;BME280;4197;42.130;24.746;2023-08-08T05:06:31;99418.22;;;17.00;100.00
8320;BME280;4197;42.130;24.746;2023-08-08T05:09:00;99416.25;;;17.01;100.00
8320;BME280;4197;42.130;24.746;2023-08-08T05:11:28;99429.91;;;17.04;100.00
8320;BME280;4197;42.130;24.746;2023-08-08T05:13:57;99434.63;;;17.04;100.00
8320;BME280;4197;42.130;24.746;2023-08-08T05:16:25;99438.94;;;17.05;100.00
8320;BME280;4197;42.130;24.746;2023-08-08T05:18:53;99445.19;;;17.09;100.00
8320;BME280;4197;42.130;24.746;2023-08-08T05:21:21;99455.34;;;17.15;100.00
8320;BME280;4197;42.130;24.746;2023-08-08T05:23:50;99467.84;;;17.16;100.00
8320;BME280;4197;42.130;24.746;2023-08-08T05:26:19;99464.31;;;17.20;100.00
8320;BME280;4197;42.130;24.746;2023-08-08T05:28:48;99470.56;;;17.24;100.00
8320;BME280;4197;42.130;24.746;2023-08-08T05:31:16;99475.25;;;17.23;100.00
8320;BME280;4197;42.130;24.746;2023-08-08T05:33:44;99474.91;;;17.14;100.00
8320;BME280;4197;42.130;24.746;2023-08-08T05:36:12;99483.16;;;17.10;100.00
8320;BME280;4197;42.130;24.746;2023-08-08T05:38:40;99492.53;;;17.13;100.00
8320;BME280;4197;42.130;24.746;2023-08-08T05:41:09;99494.09;;;17.14;100.00
8320;BME280;4197;42.130;24.746;2023-08-08T05:43:38;99499.94;;;17.12;100.00
8320;BME280;4197;42.130;24.746;2023-08-08T05:46:06;99501.16;;;17.08;100.00
8320;BME280;4197;42.130;24.746;2023-08-08T05:48:35;99508.59;;;17.04;100.00
8320;BME280;4197;42.130;24.746;2023-08-08T05:51:03;99506.66;;;16.97;100.00
8320;BME280;4197;42.130;24.746;2023-08-08T05:53:32;99507.84;;;16.89;100.00
8320;BME280;4197;42.130;24.746;2023-08-08T05:56:00;99511.78;;;16.84;100.00
8320;BME280;4197;42.130;24.746;2023-08-08T05:58:29;99523.88;;;16.72;100.00
8320;BME280;4197;42.130;24.746;2023-08-08T06:00:58;99525.88;;;16.68;100.00
8320;BME280;4197;42.130;24.746;2023-08-08T06:03:28;99520.00;;;16.59;100.00
8320;BME280;4197;42.130;24.746;2023-08-08T06:05:56;99526.25;;;16.56;100.00
8320;BME280;4197;42.130;24.746;2023-08-08T06:08:25;99527.41;;;16.51;100.00
8320;BME280;4197;42.130;24.746;2023-08-08T06:10:53;99526.63;;;16.51;100.00
8320;BME280;4197;42.130;24.746;2023-08-08T06:13:21;99519.63;;;16.46;100.00
8320;BME280;4197;42.130;24.746;2023-08-08T06:15:50;99520.00;;;16.48;100.00
8320;BME280;4197;42.130;24.746;2023-08-08T06:18:19;99524.69;;;16.59;100.00
8320;BME280;4197;42.130;24.746;2023-08-08T06:20:48;99525.84;;;16.54;100.00
8320;BME280;4197;42.130;24.746;2023-08-08T06:23:16;99527.44;;;16.66;100.00
8320;BME280;4197;42.130;24.746;2023-08-08T06:25:44;99533.69;;;16.59;100.00
8320;BME280;4197;42.130;24.746;2023-08-08T06:28:12;99521.16;;;16.83;100.00
8320;BME280;4197;42.130;24.746;2023-08-08T06:30:41;99528.97;;;16.95;100.00
8320;BME280;4197;42.130;24.746;2023-08-08T06:33:09;99519.91;;;17.16;100.00
8320;BME280;4197;42.130;24.746;2023-08-08T06:35:39;99517.19;;;17.13;100.00
8320;BME280;4197;42.130;24.746;2023-08-08T06:38:07;99514.81;;;17.22;100.00
8320;BME280;4197;42.130;24.746;2023-08-08T06:40:36;99518.31;;;17.23;100.00
8320;BME280;4197;42.130;24.746;2023-08-08T06:43:05;99515.56;;;17.23;100.00
8320;BME280;4197;42.130;24.746;2023-08-08T06:45:34;99510.47;;;17.28;100.00
8320;BME280;4197;42.130;24.746;2023-08-08T06:48:03;99506.94;;;17.31;100.00
8320;BME280;4197;42.130;24.746;2023-08-08T06:50:32;99507.69;;;17.39;100.00
8320;BME280;4197;42.130;24.746;2023-08-08T06:53:02;99506.88;;;17.46;100.00
8320;BME280;4197;42.130;24.746;2023-08-08T06:55:31;99512.72;;;17.55;100.00
8320;BME280;4197;42.130;24.746;2023-08-08T06:57:59;99511.50;;;17.63;100.00
8320;BME280;4197;42.130;24.746;2023-08-08T07:00:28;99507.41;;;17.93;100.00
8320;BME280;4197;42.130;24.746;2023-08-08T07:02:56;99516.09;;;17.88;100.00
8320;BME280;4197;42.130;24.746;2023-08-08T07:05:28;99522.28;;;17.95;100.00
8320;BME280;4197;42.130;24.746;2023-08-08T07:07:57;99522.78;;;17.83;100.00
8320;BME280;4197;42.130;24.746;2023-08-08T07:10:27;99519.97;;;17.94;100.00
8320;BME280;4197;42.130;24.746;2023-08-08T07:12:56;99517.50;;;18.06;100.00
8320;BME280;4197;42.130;24.746;2023-08-08T07:15:24;99516.31;;;18.11;100.00
8320;BME280;4197;42.130;24.746;2023-08-08T07:17:54;99513.84;;;18.27;100.00
8320;BME280;4197;42.130;24.746;2023-08-08T07:20:22;99527.53;;;18.35;100.00
8320;BME280;4197;42.130;24.746;2023-08-08T07:22:51;99532.47;;;18.50;100.00
8320;BME280;4197;42.130;24.746;2023-08-08T07:25:19;99530.84;;;18.60;100.00
8320;BME280;4197;42.130;24.746;2023-08-08T07:27:48;99534.16;;;18.86;100.00
8320;BME280;4197;42.130;24.746;2023-08-08T07:30:17;99539.53;;;18.97;100.00
8320;BME280;4197;42.130;24.746;2023-08-08T07:32:45;99536.25;;;19.09;100.00
8320;BME280;4197;42.130;24.746;2023-08-08T07:35:13;99534.59;;;19.19;100.00
8320;BME280;4197;42.130;24.746;2023-08-08T07:37:42;99535.97;;;19.34;100.00
8320;BME280;4197;42.130;24.746;2023-08-08T07:40:14;99536.34;;;19.36;100.00
8320;BME280;4197;42.130;24.746;2023-08-08T07:42:44;99533.69;;;19.29;100.00
8320;BME280;4197;42.130;24.746;2023-08-08T07:45:15;99538.84;;;19.57;100.00
8320;BME280;4197;42.130;24.746;2023-08-08T07:47:43;99535.00;;;19.51;100.00
8320;BME280;4197;42.130;24.746;2023-08-08T07:50:11;99544.97;;;19.72;100.00
8320;BME280;4197;42.130;24.746;2023-08-08T07:52:40;99546.22;;;19.68;100.00
8320;BME280;4197;42.130;24.746;2023-08-08T07:55:08;99559.47;;;19.76;100.00
8320;BME280;4197;42.130;24.746;2023-08-08T07:57:37;99551.28;;;19.69;100.00
8320;BME280;4197;42.130;24.746;2023-08-08T08:00:06;99548.41;;;19.80;100.00
8320;BME280;4197;42.130;24.746;2023-08-08T08:02:42;99557.03;;;19.82;100.00
8320;BME280;4197;42.130;24.746;2023-08-08T08:05:10;99561.75;;;19.81;100.00
8320;BME280;4197;42.130;24.746;2023-08-08T08:07:40;99564.44;;;19.85;100.00
8320;BME280;4197;42.130;24.746;2023-08-08T08:10:11;99556.47;;;19.94;100.00
8320;BME280;4197;42.130;24.746;2023-08-08T08:12:41;99559.88;;;20.02;100.00
8320;BME280;4197;42.130;24.746;2023-08-08T08:15:10;99556.66;;;20.34;100.00
8320;BME280;4197;42.130;24.746;2023-08-08T08:17:39;99561.38;;;20.34;100.00
8320;BME280;4197;42.130;24.746;2023-08-08T08:20:09;99553.06;;;20.37;100.00
8320;BME280;4197;42.130;24.746;2023-08-08T08:22:39;99549.78;;;20.46;100.00
8320;BME280;4197;42.130;24.746;2023-08-08T08:25:07;99542.00;;;20.41;100.00
8320;BME280;4197;42.130;24.746;2023-08-08T08:27:36;99551.75;;;20.45;100.00
8320;BME280;4197;42.130;24.746;2023-08-08T08:30:06;99556.47;;;20.45;100.00
8320;BME280;4197;42.130;24.746;2023-08-08T08:32:36;99549.88;;;20.39;100.00
8320;BME280;4197;42.130;24.746;2023-08-08T08:35:07;99549.34;;;20.47;100.00
8320;BME280;4197;42.130;24.746;2023-08-08T08:37:35;99547.34;;;20.75;100.00
8320;BME280;4197;42.130;24.746;2023-08-08T08:40:04;99542.66;;;20.96;100.00
8320;BME280;4197;42.130;24.746;2023-08-08T08:42:34;99544.78;;;21.08;100.00
8320;BME280;4197;42.130;24.746;2023-08-08T08:45:05;99540.19;;;21.21;100.00
8320;BME280;4197;42.130;24.746;2023-08-08T08:47:36;99539.44;;;21.41;100.00
8320;BME280;4197;42.130;24.746;2023-08-08T08:50:06;99531.78;;;21.68;100.00
8320;BME280;4197;42.130;24.746;2023-08-08T08:52:35;99532.69;;;21.81;100.00
8320;BME280;4197;42.130;24.746;2023-08-08T08:55:04;99534.41;;;21.92;100.00
8320;BME280;4197;42.130;24.746;2023-08-08T08:57:34;99537.53;;;22.10;100.00
8320;BME280;4197;42.130;24.746;2023-08-08T09:00:05;99535.56;;;22.11;100.00
8320;BME280;4197;42.130;24.746;2023-08-08T09:02:34;99532.38;;;22.12;100.00
8320;BME280;4197;42.130;24.746;2023-08-08T09:05:06;99523.75;;;22.10;100.00
8320;BME280;4197;42.130;24.746;2023-08-08T09:07:35;99523.31;;;22.12;100.00
8320;BME280;4197;42.130;24.746;2023-08-08T09:10:05;99528.91;;;22.08;100.00
8320;BME280;4197;42.130;24.746;2023-08-08T09:12:34;99527.41;;;22.23;100.00
8320;BME280;4197;42.130;24.746;2023-08-08T09:15:03;99526.69;;;22.36;100.00
8320;BME280;4197;42.130;24.746;2023-08-08T09:17:32;99518.25;;;22.43;100.00
8320;BME280;4197;42.130;24.746;2023-08-08T09:20:16;99518.59;;;22.45;100.00
8320;BME280;4197;42.130;24.746;2023-08-08T09:22:44;99514.44;;;22.53;100.00
8320;BME280;4197;42.130;24.746;2023-08-08T09:25:13;99509.88;;;22.46;98.16
8320;BME280;4197;42.130;24.746;2023-08-08T09:27:41;99503.19;;;22.60;95.85
8320;BME280;4197;42.130;24.746;2023-08-08T09:30:10;99503.59;;;22.75;88.29
8320;BME280;4197;42.130;24.746;2023-08-08T09:32:39;99513.50;;;22.89;84.43
8320;BME280;4197;42.130;24.746;2023-08-08T09:35:08;99508.94;;;22.99;83.26
8320;BME280;4197;42.130;24.746;2023-08-08T09:37:38;99498.34;;;23.10;80.33
8320;BME280;4197;42.130;24.746;2023-08-08T09:40:07;99499.81;;;23.14;80.33
8320;BME280;4197;42.130;24.746;2023-08-08T09:42:39;99514.78;;;23.30;76.35
8320;BME280;4197;42.130;24.746;2023-08-08T09:45:09;99510.34;;;23.32;71.46
8320;BME280;4197;42.130;24.746;2023-08-08T09:47:38;99496.88;;;23.47;69.21
8320;BME280;4197;42.130;24.746;2023-08-08T09:50:07;99489.50;;;23.70;66.75
8320;BME280;4197;42.130;24.746;2023-08-08T09:52:37;99488.72;;;24.08;62.86
8320;BME280;4197;42.130;24.746;2023-08-08T09:55:07;99492.91;;;24.25;60.12
8320;BME280;4197;42.130;24.746;2023-08-08T09:57:37;99490.34;;;24.43;58.29
8320;BME280;4197;42.130;24.746;2023-08-08T10:00:07;99489.44;;;24.46;56.56
8320;BME280;4197;42.130;24.746;2023-08-08T10:02:43;99483.91;;;24.34;56.19
8320;BME280;4197;42.130;24.746;2023-08-08T10:05:13;99488.72;;;24.20;58.76
8320;BME280;4197;42.130;24.746;2023-08-08T10:07:45;99482.41;;;24.20;60.57
8320;BME280;4197;42.130;24.746;2023-08-08T10:10:14;99488.56;;;24.37;58.82
8320;BME280;4197;42.130;24.746;2023-08-08T10:12:47;99490.72;;;24.67;57.60
8320;BME280;4197;42.130;24.746;2023-08-08T10:15:17;99485.66;;;24.53;54.99
8320;BME280;4197;42.130;24.746;2023-08-08T10:17:53;99486.97;;;24.61;55.39
8320;BME280;4197;42.130;24.746;2023-08-08T10:20:22;99494.75;;;24.41;54.15
8320;BME280;4197;42.130;24.746;2023-08-08T10:22:54;99496.22;;;24.45;52.89
8320;BME280;4197;42.130;24.746;2023-08-08T10:25:27;99491.34;;;24.37;51.25
8320;BME280;4197;42.130;24.746;2023-08-08T10:28:03;99489.13;;;24.32;50.99
8320;BME280;4197;42.130;24.746;2023-08-08T10:30:53;99488.38;;;24.18;50.79
8320;BME280;4197;42.130;24.746;2023-08-08T10:33:23;99496.41;;;24.38;49.48
8320;BME280;4197;42.130;24.746;2023-08-08T10:35:57;99484.66;;;24.60;49.19
8320;BME280;4197;42.130;24.746;2023-08-08T10:38:39;99478.19;;;25.20;48.46
8320;BME280;4197;42.130;24.746;2023-08-08T10:41:10;99484.72;;;25.57;46.19
8320;BME280;4197;42.130;24.746;2023-08-08T10:43:38;99481.97;;;25.66;46.04
8320;BME280;4197;42.130;24.746;2023-08-08T10:46:23;99479.16;;;25.88;46.68
8320;BME280;4197;42.130;24.746;2023-08-08T10:48:53;99482.88;;;25.94;44.72
8320;BME280;4197;42.130;24.746;2023-08-08T10:51:22;99481.06;;;25.69;44.23
8320;BME280;4197;42.130;24.746;2023-08-08T10:53:52;99470.22;;;25.62;44.92
8320;BME280;4197;42.130;24.746;2023-08-08T10:56:22;99478.16;;;25.73;43.84
8320;BME280;4197;42.130;24.746;2023-08-08T10:58:50;99476.78;;;25.77;43.42
8320;BME280;4197;42.130;24.746;2023-08-08T11:01:19;99474.91;;;25.74;43.69
8320;BME280;4197;42.130;24.746;2023-08-08T11:03:54;99468.75;;;25.79;42.17
8320;BME280;4197;42.130;24.746;2023-08-08T11:06:22;99458.34;;;25.93;43.16
8320;BME280;4197;42.130;24.746;2023-08-08T11:08:52;99453.16;;;26.22;42.15
8320;BME280;4197;42.130;24.746;2023-08-08T11:11:21;99464.75;;;26.39;41.91
8320;BME280;4197;42.130;24.746;2023-08-08T11:13:51;99454.47;;;26.58;39.48
8320;BME280;4197;42.130;24.746;2023-08-08T11:16:19;99463.22;;;26.47;39.47
8320;BME280;4197;42.130;24.746;2023-08-08T11:18:47;99455.50;;;26.42;39.75
8320;BME280;4197;42.130;24.746;2023-08-08T11:21:16;99452.06;;;26.29;39.98
8320;BME280;4197;42.130;24.746;2023-08-08T11:23:47;99443.13;;;26.25;39.81
8320;BME280;4197;42.130;24.746;2023-08-08T11:26:18;99442.31;;;26.06;40.66
8320;BME280;4197;42.130;24.746;2023-08-08T11:28:50;99435.63;;;25.85;40.95
8320;BME280;4197;42.130;24.746;2023-08-08T11:31:19;99445.69;;;26.01;39.03
8320;BME280;4197;42.130;24.746;2023-08-08T11:33:48;99437.97;;;25.96;38.45
8320;BME280;4197;42.130;24.746;2023-08-08T11:36:18;99433.41;;;25.80;38.56
8320;BME280;4197;42.130;24.746;2023-08-08T11:38:47;99432.09;;;25.94;38.32
8320;BME280;4197;42.130;24.746;2023-08-08T11:41:16;99423.47;;;26.01;38.77
8320;BME280;4197;42.130;24.746;2023-08-08T11:43:46;99435.38;;;26.11;38.36
8320;BME280;4197;42.130;24.746;2023-08-08T11:46:15;99426.13;;;26.14;37.88
8320;BME280;4197;42.130;24.746;2023-08-08T11:48:46;99432.00;;;26.25;37.54
8320;BME280;4197;42.130;24.746;2023-08-08T11:51:15;99422.91;;;26.24;38.35
8320;BME280;4197;42.130;24.746;2023-08-08T11:53:50;99417.66;;;26.45;37.97
8320;BME280;4197;42.130;24.746;2023-08-08T11:56:20;99417.84;;;26.69;36.83
8320;BME280;4197;42.130;24.746;2023-08-08T11:58:50;99412.28;;;26.69;36.86
8320;BME280;4197;42.130;24.746;2023-08-08T12:01:20;99406.22;;;26.80;38.48
8320;BME280;4197;42.130;24.746;2023-08-08T12:03:48;99410.41;;;26.66;39.11
8320;BME280;4197;42.130;24.746;2023-08-08T12:06:18;99411.00;;;26.42;38.70
8320;BME280;4197;42.130;24.746;2023-08-08T12:08:47;99409.16;;;26.48;38.42
8320;BME280;4197;42.130;24.746;2023-08-08T12:11:17;99399.44;;;26.53;38.16
8320;BME280;4197;42.130;24.746;2023-08-08T12:13:58;99391.25;;;26.77;36.70
8320;BME280;4197;42.130;24.746;2023-08-08T12:16:28;99402.19;;;26.81;36.76
8320;BME280;4197;42.130;24.746;2023-08-08T12:19:01;99394.44;;;26.94;37.43
8320;BME280;4197;42.130;24.746;2023-08-08T12:21:30;99392.22;;;27.07;36.20
8320;BME280;4197;42.130;24.746;2023-08-08T12:24:00;99385.00;;;27.01;37.05
8320;BME280;4197;42.130;24.746;2023-08-08T12:26:29;99376.91;;;27.12;36.35
8320;BME280;4197;42.130;24.746;2023-08-08T12:28:59;99371.06;;;27.19;36.14
8320;BME280;4197;42.130;24.746;2023-08-08T12:31:27;99385.28;;;27.12;35.75
8320;BME280;4197;42.130;24.746;2023-08-08T12:33:55;99388.06;;;27.12;37.48
8320;BME280;4197;42.130;24.746;2023-08-08T12:36:23;99385.44;;;27.08;39.54
8320;BME280;4197;42.130;24.746;2023-08-08T12:38:51;99381.41;;;27.09;38.94
8320;BME280;4197;42.130;24.746;2023-08-08T12:41:20;99380.69;;;26.90;39.40
8320;BME280;4197;42.130;24.746;2023-08-08T12:43:48;99385.91;;;27.07;39.28
8320;BME280;4197;42.130;24.746;2023-08-08T12:46:18;99383.88;;;27.07;39.07
8320;BME280;4197;42.130;24.746;2023-08-08T12:48:47;99382.47;;;27.30;38.10
8320;BME280;4197;42.130;24.746;2023-08-08T12:51:15;99379.53;;;27.25;38.77
8320;BME280;4197;42.130;24.746;2023-08-08T12:53:44;99378.63;;;27.09;38.30
8320;BME280;4197;42.130;24.746;2023-08-08T12:56:12;99378.00;;;27.14;38.94
8320;BME280;4197;42.130;24.746;2023-08-08T12:58:40;99368.31;;;27.43;36.78
8320;BME280;4197;42.130;24.746;2023-08-08T13:01:09;99359.69;;;27.65;36.70
8320;BME280;4197;42.130;24.746;2023-08-08T13:03:39;99363.88;;;27.94;34.37
8320;BME280;4197;42.130;24.746;2023-08-08T13:06:17;99364.13;;;27.81;34.24
8320;BME280;4197;42.130;24.746;2023-08-08T13:08:46;99362.47;;;27.65;34.78
8320;BME280;4197;42.130;24.746;2023-08-08T13:11:14;99364.28;;;27.77;34.67
8320;BME280;4197;42.130;24.746;2023-08-08T13:13:42;99366.81;;;27.66;33.43
8320;BME280;4197;42.130;24.746;2023-08-08T13:16:11;99360.22;;;27.54;33.69